Savoonga, AK

9:49 PM AKST on February 26, 2017 (GMT -0900)
Savoonga | | Change Station

Elev 52 ft 63.69 °N, 170.49 °W | Updated 15 minutes ago

Overcast
Overcast
23 °F
Feels Like 8 °F
N
20
Wind Variable Wind from West

Today
High -- | Low -- °F
--% Chance of Precip.
Yesterday
High -- | Low -- °F
Precip. -- in
Pressure 30.16 in
Visibility 4.0 miles
Clouds Few 1000 ft
Mostly Cloudy 1500 ft
Overcast 3500 ft
Windchill 8 °F
Dew Point 19 °F
Humidity 86%
Rainfall 0.00 in
Snow Depth Not available.
9:36 AM 7:34 PM
New Moon, 1% visible
SPECI PASA 270634Z AUTO 27017KT 4SM -SN BR FEW010 BKN015 OVC035 M05/M07 A3016 RMK AO2 PK WND 24027/0604 SNB00 P0000 FZRANO $
Pressure 30.16 in
Visibility 4.0 miles
Clouds Few 1000 ft
Mostly Cloudy 1500 ft
Overcast 3500 ft
Windchill 8 °F
Dew Point 19 °F
Humidity 86%
Rainfall 0.00 in
Snow Depth Not available.
9:36 AM 7:34 PM
New Moon, 1% visible
SPECI PASA 270634Z AUTO 27017KT 4SM -SN BR FEW010 BKN015 OVC035 M05/M07 A3016 RMK AO2 PK WND 24027/0604 SNB00 P0000 FZRANO $

Get Your Daily Forecast Email!

Thanks for signing up!

Be on the lookout for a verification email in your inbox.

You'll start receiving the daily forecast at 8 AM.

×

10-Day Weather Forecast

Almanac

Astronomy

Feb. 26, 2017 Rise Set
Actual Time
Civil Twilight
Nautical Twilight
Astronomical Twilight
Moon
Length of Visible Light
Length of Day
Tomorrow will be .
, % of the Moon is Illuminated

Today's Extremes

State Highs State Lows

Community

WunderPhotos

Upload Photos

1,962,540 photos uploaded!

WunderBlog® & News

Nearby

Air Quality

  Air Quality AQ Index Pollutant
Not available.

Snow Depth

Station Depth Elevation

Earthquake Activity

City Distance Mag. Time & Date
Minimum magnitude displayed is 2.5.

Coastal Water Temperatures

Place Temperature

Stations

Nearby Weather Stations

Station Location Temp. Windchill Dew Point Humidity Wind Precip. Elev Updated Type
                   

Watches & Warnings

There are currently no watches in effect.